Time;durP1;ratioP1;P1;durP2;ratioP2;P2;SDS_P1;SDS_P2;PMS_P1;PMS_P2;Temp;Humidity;BMP_temperature;BMP_pressure;BME280_temperature;BME280_humidity;BME280_pressure;Samples;Min_cycle;Max_cycle;Signal;HPM_P1;HPM_P2
2022/10/12 00:01:20;;;;;;;7.50;4.50;;;6.70;99.90;;;;;;5110495;28;20468;-69
2022/10/12 00:03:47;;;;;;;8.00;4.47;;;6.70;99.90;;;;;;5109851;28;20443;-70
2022/10/12 00:06:17;;;;;;;10.43;4.30;;;6.70;99.90;;;;;;5093934;28;20449;-69
2022/10/12 00:08:45;;;;;;;13.30;5.57;;;6.70;99.90;;;;;;5108808;28;20819;-69
2022/10/12 00:11:14;;;;;;;11.97;4.40;;;6.70;99.90;;;;;;5111962;28;20470;-69
2022/10/12 00:13:40;;;;;;;14.40;4.20;;;6.70;99.90;;;;;;5113101;28;20946;-69
2022/10/12 00:16:10;;;;;;;10.87;5.03;;;6.70;99.90;;;;;;5095788;28;20490;-70
2022/10/12 00:18:37;;;;;;;18.73;5.30;;;6.70;99.90;;;;;;5093052;28;20809;-70
2022/10/12 00:21:06;;;;;;;14.50;5.20;;;6.70;99.90;;;;;;5093991;28;20524;-69
2022/10/12 00:23:35;;;;;;;10.70;5.03;;;6.70;99.90;;;;;;5092863;28;20456;-69
2022/10/12 00:26:03;;;;;;;9.67;4.60;;;6.60;99.90;;;;;;5092926;28;20509;-69
2022/10/12 00:28:30;;;;;;;11.70;4.93;;;6.60;99.90;;;;;;5092978;28;20463;-69
2022/10/12 00:30:57;;;;;;;9.43;4.83;;;6.60;99.90;;;;;;5092245;28;20499;-69
2022/10/12 00:33:27;;;;;;;7.63;4.80;;;6.60;99.90;;;;;;5092765;28;20451;-69
2022/10/12 00:35:53;;;;;;;16.10;5.73;;;6.60;99.90;;;;;;5106705;28;20480;-69
2022/10/12 00:38:20;;;;;;;11.50;4.33;;;6.60;99.90;;;;;;5095031;28;20457;-69
2022/10/12 00:40:47;;;;;;;17.43;4.80;;;6.50;99.90;;;;;;5092373;28;20472;-69
2022/10/12 00:43:26;;;;;;;8.90;4.33;;;6.60;99.90;;;;;;5093675;28;20539;-69
2022/10/12 00:45:53;;;;;;;7.23;4.17;;;6.60;99.90;;;;;;5105310;28;20450;-69
2022/10/12 00:48:19;;;;;;;10.23;4.60;;;6.50;99.90;;;;;;5095334;28;20450;-69
2022/10/12 00:50:47;;;;;;;8.27;4.30;;;6.50;99.90;;;;;;5092199;28;20744;-69
2022/10/12 00:53:17;;;;;;;13.30;5.07;;;6.50;99.90;;;;;;5092223;28;20842;-69
2022/10/12 00:55:48;;;;;;;11.33;4.47;;;6.50;99.90;;;;;;5092333;28;20479;-69
2022/10/12 00:58:15;;;;;;;10.10;4.50;;;6.50;99.90;;;;;;5108148;28;20960;-69
2022/10/12 01:00:43;;;;;;;7.60;4.67;;;6.50;99.90;;;;;;5112099;28;20804;-69
2022/10/12 01:03:12;;;;;;;12.60;5.10;;;6.50;99.90;;;;;;5112445;28;20443;-69
2022/10/12 01:05:40;;;;;;;7.03;4.27;;;6.40;99.90;;;;;;5111504;28;20478;-69
2022/10/12 01:08:08;;;;;;;8.80;4.20;;;6.40;99.90;;;;;;5101165;27;20502;-69
2022/10/12 01:10:35;;;;;;;22.53;4.70;;;6.30;99.90;;;;;;5111020;28;20951;-70
2022/10/12 01:13:02;;;;;;;7.17;3.70;;;6.30;99.90;;;;;;5112488;28;20829;-70
2022/10/12 01:15:36;;;;;;;8.43;4.37;;;6.20;99.90;;;;;;5102739;28;20453;-70
2022/10/12 01:18:09;;;;;;;14.77;4.27;;;6.20;99.90;;;;;;5099728;28;20438;-70
2022/10/12 01:20:56;;;;;;;14.27;4.67;;;6.20;99.90;;;;;;5092469;28;20456;-70
2022/10/12 01:23:49;;;;;;;12.07;4.37;;;6.10;99.90;;;;;;5101693;28;20454;-70
2022/10/12 01:26:55;;;;;;;9.60;3.83;;;6.00;99.90;;;;;;5110565;28;20445;-70
2022/10/12 01:29:43;;;;;;;14.43;5.30;;;6.00;99.90;;;;;;5092879;28;20453;-70
2022/10/12 01:32:17;;;;;;;11.93;5.47;;;6.00;99.90;;;;;;5091449;28;20471;-70
2022/10/12 01:34:48;;;;;;;13.70;4.80;;;6.00;99.90;;;;;;5093032;28;20442;-70
2022/10/12 01:37:21;;;;;;;9.17;5.00;;;5.90;99.90;;;;;;5104935;28;20475;-70
2022/10/12 01:39:53;;;;;;;9.03;4.70;;;5.90;99.90;;;;;;5091588;28;20459;-69
2022/10/12 01:42:24;;;;;;;10.53;4.23;;;5.90;99.90;;;;;;5091319;28;20558;-69
2022/10/12 01:45:00;;;;;;;6.67;4.33;;;5.90;99.90;;;;;;5111166;28;20447;-69
2022/10/12 01:47:28;;;;;;;22.20;5.03;;;5.90;99.90;;;;;;5110436;28;20454;-69
2022/10/12 01:49:54;;;;;;;16.90;4.80;;;5.80;99.90;;;;;;5111461;28;20460;-69
2022/10/12 01:52:27;;;;;;;12.57;4.70;;;5.80;99.90;;;;;;5111649;28;20976;-69
2022/10/12 01:55:07;;;;;;;16.20;4.77;;;5.90;99.90;;;;;;5107674;28;20454;-69
2022/10/12 01:57:42;;;;;;;11.87;5.20;;;5.80;99.90;;;;;;5104634;28;20520;-69
2022/10/12 02:00:11;;;;;;;11.30;4.70;;;5.80;99.90;;;;;;5111215;28;20950;-70
2022/10/12 02:02:50;;;;;;;16.70;5.80;;;5.80;99.90;;;;;;5111456;28;20833;-69
2022/10/12 02:05:26;;;;;;;15.23;4.93;;;5.80;99.90;;;;;;5104678;28;20449;-69
2022/10/12 02:07:59;;;;;;;14.43;5.80;;;5.80;99.90;;;;;;5107006;28;20453;-69
2022/10/12 02:10:30;;;;;;;11.93;5.03;;;5.80;99.90;;;;;;5110835;28;20453;-69
2022/10/12 02:13:02;;;;;;;20.53;5.37;;;5.80;99.90;;;;;;5095191;28;20787;-70
2022/10/12 02:15:30;;;;;;;14.63;5.87;;;5.80;99.90;;;;;;5109029;28;20461;-70
2022/10/12 02:17:58;;;;;;;14.83;5.20;;;5.80;99.90;;;;;;5094951;28;20575;-69
2022/10/12 02:20:27;;;;;;;11.70;5.50;;;5.70;99.90;;;;;;5095110;28;20491;-69
2022/10/12 02:22:55;;;;;;;11.97;6.50;;;5.70;99.90;;;;;;5091713;28;20454;-69
2022/10/12 02:25:25;;;;;;;9.30;4.80;;;5.70;99.90;;;;;;5091310;28;20457;-69
2022/10/12 02:27:57;;;;;;;21.50;5.10;;;5.70;99.90;;;;;;5106368;28;20956;-69
2022/10/12 02:30:24;;;;;;;20.77;6.10;;;5.60;99.90;;;;;;5111248;28;20528;-69
2022/10/12 02:32:55;;;;;;;18.70;6.60;;;5.60;99.90;;;;;;5111535;28;20494;-69
2022/10/12 02:35:30;;;;;;;14.30;5.20;;;5.60;99.90;;;;;;5110608;28;20451;-69
2022/10/12 02:38:01;;;;;;;12.97;5.77;;;5.50;99.90;;;;;;5095546;28;20485;-69
2022/10/12 02:40:34;;;;;;;17.77;6.00;;;5.60;99.90;;;;;;5110354;28;20692;-69
2022/10/12 02:43:06;;;;;;;23.87;5.60;;;5.50;99.90;;;;;;5110303;28;20455;-69
2022/10/12 02:45:34;;;;;;;15.97;6.00;;;5.50;99.90;;;;;;5102663;28;20457;-69
2022/10/12 02:48:01;;;;;;;11.00;4.80;;;5.50;99.90;;;;;;5107096;28;20448;-69
2022/10/12 02:50:30;;;;;;;13.70;6.40;;;5.50;99.90;;;;;;5111218;28;20506;-69
2022/10/12 02:52:58;;;;;;;23.73;6.30;;;5.50;99.90;;;;;;5113044;28;20502;-69
2022/10/12 02:55:25;;;;;;;12.50;6.33;;;5.50;99.90;;;;;;5108095;28;20451;-69
2022/10/12 02:57:51;;;;;;;12.10;5.40;;;5.50;99.90;;;;;;5108965;28;20515;-69
2022/10/12 03:00:18;;;;;;;12.33;5.83;;;5.50;99.90;;;;;;5113716;28;20453;-69
2022/10/12 03:02:45;;;;;;;15.63;5.53;;;5.50;99.90;;;;;;5101695;28;20876;-69
2022/10/12 03:05:12;;;;;;;16.43;6.07;;;5.50;99.90;;;;;;5094487;28;20452;-69
2022/10/12 03:07:40;;;;;;;19.03;5.87;;;5.40;99.90;;;;;;5106701;28;20452;-69
2022/10/12 03:10:07;;;;;;;18.20;6.00;;;5.40;99.90;;;;;;5114714;28;20451;-69
2022/10/12 03:12:34;;;;;;;15.53;6.50;;;5.40;99.90;;;;;;5094895;28;20847;-69
2022/10/12 03:15:00;;;;;;;12.03;5.87;;;5.40;99.90;;;;;;5099022;28;20475;-69
2022/10/12 03:17:27;;;;;;;10.10;5.90;;;5.40;99.90;;;;;;5108428;27;20485;-69
2022/10/12 03:19:53;;;;;;;12.30;5.37;;;5.40;99.90;;;;;;5114241;28;20511;-69
2022/10/12 03:22:20;;;;;;;15.40;5.30;;;5.40;99.90;;;;;;5113877;28;20470;-69
2022/10/12 03:24:48;;;;;;;10.47;5.70;;;5.40;99.90;;;;;;5113100;28;20452;-69
2022/10/12 03:27:15;;;;;;;9.50;4.87;;;5.40;99.90;;;;;;5102465;28;20447;-69
2022/10/12 03:29:41;;;;;;;8.23;4.80;;;5.40;99.90;;;;;;5114440;28;20499;-69
2022/10/12 03:32:08;;;;;;;14.47;5.50;;;5.30;99.90;;;;;;5114135;28;20478;-70
2022/10/12 03:34:35;;;;;;;8.70;5.63;;;5.30;99.90;;;;;;5110696;28;20474;-69
2022/10/12 03:37:01;;;;;;;24.40;5.43;;;5.30;99.90;;;;;;5096069;28;20483;-69
2022/10/12 03:39:28;;;;;;;14.70;5.20;;;5.30;99.90;;;;;;5113753;28;20452;-69
2022/10/12 03:41:56;;;;;;;16.90;4.90;;;5.30;99.90;;;;;;5113556;28;20470;-69
2022/10/12 03:44:23;;;;;;;9.93;4.90;;;5.30;99.90;;;;;;5113216;28;21008;-69
2022/10/12 03:46:49;;;;;;;18.23;5.23;;;5.20;99.90;;;;;;5108742;28;20491;-69
2022/10/12 03:49:16;;;;;;;10.20;5.50;;;5.20;99.90;;;;;;5093626;28;20452;-70
2022/10/12 03:51:43;;;;;;;14.30;5.67;;;5.20;99.90;;;;;;5093020;28;20474;-69
2022/10/12 03:54:09;;;;;;;15.80;6.30;;;5.20;99.90;;;;;;5093319;28;20444;-69
2022/10/12 03:56:36;;;;;;;13.83;5.10;;;5.10;99.90;;;;;;5106544;28;20461;-69
2022/10/12 03:59:04;;;;;;;10.30;5.97;;;5.10;99.90;;;;;;5113684;28;20447;-69
2022/10/12 04:01:31;;;;;;;17.30;5.60;;;5.10;99.90;;;;;;5113354;28;20469;-69
2022/10/12 04:03:58;;;;;;;9.80;5.60;;;5.00;99.90;;;;;;5112780;28;20459;-70
2022/10/12 04:06:24;;;;;;;13.00;5.47;;;5.10;99.90;;;;;;5105604;28;20456;-69
2022/10/12 04:08:51;;;;;;;18.40;5.70;;;5.10;99.90;;;;;;5110906;28;20452;-69
2022/10/12 04:11:19;;;;;;;12.43;5.33;;;5.00;99.90;;;;;;5102997;28;20865;-69
2022/10/12 04:13:45;;;;;;;10.40;4.70;;;5.00;99.90;;;;;;5093124;28;20465;-69
2022/10/12 04:16:13;;;;;;;12.93;5.27;;;5.10;99.90;;;;;;5093083;28;20463;-69
2022/10/12 04:18:40;;;;;;;18.87;5.80;;;5.00;99.90;;;;;;5092984;28;20488;-69
2022/10/12 04:21:11;;;;;;;14.17;5.17;;;5.10;99.90;;;;;;5108762;28;20936;-69
2022/10/12 04:23:37;;;;;;;15.50;6.10;;;5.00;99.90;;;;;;5113123;28;20511;-68
2022/10/12 04:26:04;;;;;;;17.27;5.90;;;5.00;99.90;;;;;;5103043;28;20484;-69
2022/10/12 04:28:31;;;;;;;16.07;6.53;;;5.00;99.90;;;;;;5092719;28;20975;-68
2022/10/12 04:30:58;;;;;;;13.80;6.20;;;5.00;99.90;;;;;;5106787;28;20481;-69
2022/10/12 04:33:25;;;;;;;14.03;6.67;;;5.00;99.90;;;;;;5094676;28;20448;-69
2022/10/12 04:35:52;;;;;;;15.40;6.53;;;5.00;99.90;;;;;;5100284;28;20506;-69
2022/10/12 04:38:19;;;;;;;13.83;6.20;;;5.00;99.90;;;;;;5111637;28;20485;-69
2022/10/12 04:40:47;;;;;;;20.97;6.30;;;5.00;99.90;;;;;;5104984;28;20884;-68
2022/10/12 04:43:14;;;;;;;16.80;6.43;;;5.00;99.90;;;;;;5112878;28;20482;-68
2022/10/12 04:45:41;;;;;;;17.83;7.37;;;5.00;99.90;;;;;;5106856;28;20459;-69
2022/10/12 04:48:07;;;;;;;16.47;6.13;;;4.90;99.90;;;;;;5092257;28;20539;-68
2022/10/12 04:50:35;;;;;;;16.50;6.00;;;4.90;99.90;;;;;;5102691;28;20451;-69
2022/10/12 04:53:02;;;;;;;10.90;5.93;;;4.90;99.90;;;;;;5112499;28;20542;-69
2022/10/12 04:55:29;;;;;;;11.10;5.73;;;4.90;99.90;;;;;;5106492;28;20484;-69
2022/10/12 04:57:55;;;;;;;14.33;6.20;;;4.90;99.90;;;;;;5103658;28;20493;-68
2022/10/12 05:00:22;;;;;;;17.33;6.17;;;4.90;99.90;;;;;;5109611;28;20982;-69
2022/10/12 05:02:49;;;;;;;15.27;6.90;;;4.90;99.90;;;;;;5111333;28;21070;-69
2022/10/12 05:05:16;;;;;;;12.80;6.10;;;4.90;99.90;;;;;;5111917;28;20470;-69
2022/10/12 05:07:44;;;;;;;14.53;6.50;;;4.90;99.90;;;;;;5111379;28;20964;-69
2022/10/12 05:10:11;;;;;;;19.20;6.80;;;4.90;99.90;;;;;;5111564;27;20494;-69
2022/10/12 05:12:37;;;;;;;9.70;6.10;;;4.90;99.90;;;;;;5111506;28;20481;-69
2022/10/12 05:15:05;;;;;;;16.23;6.60;;;4.90;99.90;;;;;;5106926;28;20980;-69
2022/10/12 05:17:31;;;;;;;14.97;6.70;;;4.90;99.90;;;;;;5091361;28;20486;-69
2022/10/12 05:19:58;;;;;;;16.77;6.67;;;4.90;99.90;;;;;;5097319;28;20507;-69
2022/10/12 05:22:25;;;;;;;12.27;7.30;;;4.90;99.90;;;;;;5111968;28;20507;-69
2022/10/12 05:24:52;;;;;;;15.50;7.43;;;4.90;99.90;;;;;;5111177;28;20458;-72
2022/10/12 05:27:19;;;;;;;14.83;6.73;;;4.90;99.90;;;;;;5106836;28;20446;-73
2022/10/12 05:29:46;;;;;;;20.20;6.80;;;4.90;99.90;;;;;;5091624;28;20437;-73
2022/10/12 05:32:13;;;;;;;17.93;6.63;;;4.90;99.90;;;;;;5090839;28;20472;-72
2022/10/12 05:34:41;;;;;;;14.13;7.23;;;4.90;99.90;;;;;;5091406;28;20471;-72
2022/10/12 05:37:07;;;;;;;23.90;6.50;;;4.90;99.90;;;;;;5091322;28;20449;-72
2022/10/12 05:39:35;;;;;;;20.17;7.10;;;4.90;99.90;;;;;;5091713;28;20448;-72
2022/10/12 05:42:03;;;;;;;17.93;6.70;;;4.90;99.90;;;;;;5091119;28;20507;-72
2022/10/12 05:44:30;;;;;;;16.97;6.43;;;4.90;99.90;;;;;;5091071;28;20454;-72
2022/10/12 05:46:57;;;;;;;20.87;6.80;;;4.90;99.90;;;;;;5097655;28;20442;-72
2022/10/12 05:49:24;;;;;;;22.80;6.60;;;4.90;99.90;;;;;;5111499;28;20457;-72
2022/10/12 05:51:50;;;;;;;18.40;7.20;;;4.90;99.90;;;;;;5110207;28;20518;-72
2022/10/12 05:54:17;;;;;;;28.83;7.13;;;4.90;99.90;;;;;;5111749;28;20450;-72
2022/10/12 05:56:44;;;;;;;17.00;8.90;;;4.80;99.90;;;;;;5109207;28;20453;-72
2022/10/12 05:59:12;;;;;;;17.10;8.00;;;4.90;99.90;;;;;;5104775;28;20486;-73
2022/10/12 06:01:39;;;;;;;19.33;7.03;;;4.90;99.90;;;;;;5090950;28;20529;-72
2022/10/12 06:04:06;;;;;;;18.40;7.07;;;4.90;99.90;;;;;;5097853;28;20542;-72
2022/10/12 06:06:32;;;;;;;18.90;7.30;;;4.90;99.90;;;;;;5098697;28;20456;-72
2022/10/12 06:08:59;;;;;;;23.60;8.17;;;5.00;99.90;;;;;;5089324;28;20444;-72
2022/10/12 06:11:26;;;;;;;25.83;8.40;;;5.00;99.90;;;;;;5090813;28;20468;-72
2022/10/12 06:13:53;;;;;;;16.50;8.50;;;5.10;99.90;;;;;;5091123;28;20461;-69
2022/10/12 06:16:21;;;;;;;13.60;7.20;;;5.20;99.90;;;;;;5107663;28;20458;-70
2022/10/12 06:18:48;;;;;;;16.80;7.33;;;5.30;99.90;;;;;;5106790;28;20504;-70
2022/10/12 06:21:15;;;;;;;30.70;8.30;;;5.50;99.90;;;;;;5106321;28;20488;-70
2022/10/12 06:23:42;;;;;;;14.47;7.37;;;5.80;99.90;;;;;;5105215;28;20456;-70
2022/10/12 06:26:08;;;;;;;11.50;6.03;;;6.30;99.90;;;;;;5107173;28;20456;-70
2022/10/12 06:28:35;;;;;;;17.53;6.67;;;6.70;99.90;;;;;;5109889;28;20442;-70
2022/10/12 06:31:02;;;;;;;14.33;7.00;;;7.20;99.90;;;;;;5110673;28;20474;-71
2022/10/12 06:33:30;;;;;;;18.97;6.57;;;7.60;99.90;;;;;;5110922;28;20503;-70
2022/10/12 06:35:56;;;;;;;13.73;7.10;;;8.30;99.90;;;;;;5110506;28;20454;-71
2022/10/12 06:38:23;;;;;;;22.43;6.50;;;8.80;99.90;;;;;;5107860;28;20489;-70
2022/10/12 06:40:51;;;;;;;13.10;7.10;;;9.10;99.90;;;;;;5108176;28;20481;-71
2022/10/12 06:43:17;;;;;;;20.83;7.37;;;9.60;99.90;;;;;;5110512;28;20523;-70
2022/10/12 06:45:44;;;;;;;24.67;6.93;;;10.10;99.90;;;;;;5110023;28;20465;-70
2022/10/12 06:48:11;;;;;;;16.00;6.80;;;10.60;99.90;;;;;;5109763;27;20458;-71
2022/10/12 06:50:39;;;;;;;15.57;6.33;;;10.90;99.90;;;;;;5109602;28;20449;-71
2022/10/12 06:53:06;;;;;;;15.97;6.43;;;11.10;99.90;;;;;;5108300;28;20442;-71
2022/10/12 06:55:33;;;;;;;11.63;6.10;;;11.30;99.90;;;;;;5109585;28;20458;-70
2022/10/12 06:57:59;;;;;;;15.20;6.30;;;11.60;99.90;;;;;;5110127;28;20486;-71
2022/10/12 07:00:26;;;;;;;14.83;6.10;;;11.40;99.90;;;;;;5108703;28;20520;-71
2022/10/12 07:02:53;;;;;;;13.17;6.37;;;11.00;99.90;;;;;;5110095;28;20454;-70
2022/10/12 07:05:20;;;;;;;16.60;6.17;;;10.50;99.90;;;;;;5109314;28;20507;-71
2022/10/12 07:07:48;;;;;;;13.53;6.23;;;10.10;99.90;;;;;;5108544;28;20864;-72
2022/10/12 07:10:15;;;;;;;12.63;5.53;;;10.30;99.90;;;;;;5108891;28;20967;-71
2022/10/12 07:12:42;;;;;;;14.10;6.50;;;11.10;99.90;;;;;;5109253;28;20478;-69
2022/10/12 07:15:09;;;;;;;17.23;6.53;;;11.60;99.90;;;;;;5109217;28;20451;-69
2022/10/12 07:17:36;;;;;;;15.67;6.10;;;11.60;99.90;;;;;;5109906;28;20503;-69
2022/10/12 07:20:04;;;;;;;13.60;6.47;;;11.30;99.90;;;;;;5108456;28;20454;-69
2022/10/12 07:22:31;;;;;;;14.53;6.93;;;11.20;99.90;;;;;;5108743;28;20574;-69
2022/10/12 07:24:59;;;;;;;14.43;6.40;;;11.10;99.90;;;;;;5108624;28;20477;-69
2022/10/12 07:27:26;;;;;;;16.37;5.70;;;10.80;99.90;;;;;;5109456;28;20948;-68
2022/10/12 07:29:53;;;;;;;10.67;5.20;;;11.00;99.90;;;;;;5110144;28;20528;-71
2022/10/12 07:32:19;;;;;;;15.00;6.50;;;11.60;99.90;;;;;;5109747;28;20547;-70
2022/10/12 07:34:46;;;;;;;12.83;6.00;;;11.80;99.90;;;;;;5110445;28;20567;-71
2022/10/12 07:37:14;;;;;;;15.20;6.23;;;11.40;99.90;;;;;;5108851;27;20884;-71
2022/10/12 07:39:41;;;;;;;14.93;5.90;;;10.80;99.90;;;;;;5107772;28;20482;-71
2022/10/12 07:42:10;;;;;;;12.23;6.70;;;10.70;99.90;;;;;;5110104;28;20478;-71
2022/10/12 07:44:36;;;;;;;13.93;5.60;;;10.80;99.90;;;;;;5109641;27;20795;-71
2022/10/12 07:47:03;;;;;;;13.40;5.50;;;10.90;99.90;;;;;;5109841;28;20898;-71
2022/10/12 07:49:30;;;;;;;15.30;7.00;;;11.10;99.90;;;;;;5108635;28;20438;-71
2022/10/12 07:51:56;;;;;;;14.70;6.17;;;11.40;99.90;;;;;;5108861;28;21342;-71
2022/10/12 07:54:23;;;;;;;17.93;5.57;;;11.70;99.90;;;;;;5109529;28;20906;-71
2022/10/12 07:56:50;;;;;;;11.70;5.70;;;11.90;99.90;;;;;;5108996;28;20455;-71
2022/10/12 07:59:18;;;;;;;9.37;5.43;;;12.10;99.90;;;;;;5109841;28;20480;-71
2022/10/12 08:01:44;;;;;;;19.93;6.00;;;12.20;99.90;;;;;;5108084;28;20475;-71
2022/10/12 08:04:11;;;;;;;15.90;5.90;;;12.00;99.90;;;;;;5106519;28;20444;-71
2022/10/12 08:06:38;;;;;;;19.80;6.37;;;12.00;99.90;;;;;;5107291;28;20963;-71
2022/10/12 08:09:05;;;;;;;17.07;5.80;;;12.00;99.90;;;;;;5106975;28;20446;-71
2022/10/12 08:11:31;;;;;;;12.67;5.57;;;12.10;99.90;;;;;;5106216;28;20978;-71
2022/10/12 08:13:58;;;;;;;11.23;5.73;;;12.30;99.90;;;;;;5107835;28;20831;-69
2022/10/12 08:16:26;;;;;;;14.20;5.63;;;12.10;99.90;;;;;;5106400;28;20442;-69
2022/10/12 08:18:53;;;;;;;16.93;6.17;;;12.00;99.90;;;;;;5106030;28;20527;-69
2022/10/12 08:21:19;;;;;;;15.73;6.53;;;11.80;99.90;;;;;;5107522;28;20473;-69
2022/10/12 08:23:46;;;;;;;18.30;6.83;;;11.80;99.90;;;;;;5108878;28;20431;-69
2022/10/12 08:26:15;;;;;;;11.87;6.00;;;12.10;99.90;;;;;;5108924;28;20456;-69
2022/10/12 08:28:42;;;;;;;12.03;5.83;;;12.40;99.90;;;;;;5107882;28;20537;-70
2022/10/12 08:31:10;;;;;;;12.83;6.10;;;12.90;99.90;;;;;;5107590;28;20543;-69
2022/10/12 08:33:39;;;;;;;7.37;5.37;;;13.30;99.90;;;;;;5108098;28;21012;-69
2022/10/12 08:36:07;;;;;;;24.10;6.63;;;13.70;99.90;;;;;;5106836;28;20505;-69
2022/10/12 08:38:35;;;;;;;13.50;6.37;;;13.80;99.90;;;;;;5108599;28;20483;-70
2022/10/12 08:41:18;;;;;;;13.17;7.03;;;14.00;99.90;;;;;;5107532;28;20538;-71
2022/10/12 08:44:04;;;;;;;16.87;6.50;;;14.20;99.90;;;;;;5108426;28;20438;-69
2022/10/12 08:46:31;;;;;;;13.03;6.27;;;14.40;99.90;;;;;;5107589;28;20446;-70
2022/10/12 08:49:04;;;;;;;17.23;6.57;;;14.60;99.90;;;;;;5108093;28;21061;-71
2022/10/12 08:51:33;;;;;;;10.83;6.30;;;14.70;99.90;;;;;;5107271;28;20509;-69
2022/10/12 08:54:05;;;;;;;14.90;6.17;;;14.90;99.90;;;;;;5107849;28;20484;-69
2022/10/12 08:56:33;;;;;;;13.53;6.30;;;15.10;99.90;;;;;;5107879;28;20455;-68
2022/10/12 08:59:02;;;;;;;8.60;5.80;;;15.30;99.90;;;;;;5108155;28;20482;-68
2022/10/12 09:01:35;;;;;;;13.10;5.70;;;15.40;99.90;;;;;;5106671;28;20470;-69
2022/10/12 09:04:15;;;;;;;16.80;7.03;;;15.40;99.90;;;;;;5108221;28;20443;-71
2022/10/12 09:06:48;;;;;;;9.27;5.53;;;15.70;99.90;;;;;;5106977;28;20450;-69
2022/10/12 09:09:31;;;;;;;12.70;5.90;;;15.90;99.90;;;;;;5108415;28;20446;-69
2022/10/12 09:12:15;;;;;;;10.97;5.90;;;16.20;99.90;;;;;;5107436;28;20465;-70
2022/10/12 09:14:42;;;;;;;12.50;5.77;;;16.40;99.90;;;;;;5107212;28;20518;-68
2022/10/12 09:17:24;;;;;;;11.90;5.50;;;16.50;99.90;;;;;;5107238;28;20463;-68
2022/10/12 09:19:59;;;;;;;13.17;4.80;;;16.80;99.90;;;;;;5106328;28;20494;-68
2022/10/12 09:22:28;;;;;;;8.93;4.87;;;16.90;99.90;;;;;;5107755;28;20497;-69
2022/10/12 09:24:56;;;;;;;12.00;5.50;;;17.20;99.90;;;;;;5107040;28;20471;-68
2022/10/12 09:27:23;;;;;;;14.73;4.97;;;17.30;99.90;;;;;;5106669;28;20547;-69
2022/10/12 09:29:54;;;;;;;16.50;5.80;;;17.40;99.90;;;;;;5106854;28;20893;-69
2022/10/12 09:32:36;;;;;;;15.03;5.17;;;17.30;99.90;;;;;;5106470;28;20970;-69
2022/10/12 09:35:06;;;;;;;13.10;4.93;;;17.40;99.90;;;;;;5107995;28;20471;-69
2022/10/12 09:37:35;;;;;;;9.60;5.37;;;17.60;99.90;;;;;;5106826;28;20507;-68
2022/10/12 09:40:02;;;;;;;10.50;4.70;;;17.00;99.90;;;;;;5105572;28;20551;-70
2022/10/12 09:42:29;;;;;;;11.80;4.80;;;16.90;99.90;;;;;;5106696;28;20445;-70
2022/10/12 09:45:01;;;;;;;10.73;4.60;;;16.90;99.90;;;;;;5107653;28;20443;-70
2022/10/12 09:47:30;;;;;;;10.97;5.90;;;16.80;99.90;;;;;;5107733;28;20922;-70
2022/10/12 09:49:58;;;;;;;11.97;4.60;;;16.70;99.90;;;;;;5108064;28;20459;-70
2022/10/12 09:52:29;;;;;;;14.50;4.30;;;16.80;99.90;;;;;;5107154;28;20441;-72
2022/10/12 09:54:59;;;;;;;18.43;4.57;;;16.70;99.90;;;;;;5107712;28;20421;-70
2022/10/12 09:57:28;;;;;;;14.50;5.27;;;16.80;99.90;;;;;;5107087;28;20454;-70
2022/10/12 09:59:56;;;;;;;10.93;5.07;;;16.90;99.90;;;;;;5107775;28;20472;-70
2022/10/12 10:02:23;;;;;;;19.20;4.80;;;17.10;99.90;;;;;;5109924;28;20444;-70
2022/10/12 10:04:51;;;;;;;10.60;5.23;;;16.60;99.90;;;;;;5111084;28;20454;-70
2022/10/12 10:07:27;;;;;;;8.93;4.30;;;16.50;99.90;;;;;;5111492;28;20453;-70
2022/10/12 10:10:16;;;;;;;12.90;4.73;;;16.40;99.90;;;;;;5111665;28;20500;-70
2022/10/12 10:12:48;;;;;;;11.83;5.13;;;16.60;99.90;;;;;;5111473;28;20498;-70
2022/10/12 10:15:25;;;;;;;14.80;6.00;;;16.80;99.90;;;;;;5110872;28;20456;-72
2022/10/12 10:17:54;;;;;;;13.83;5.07;;;16.90;99.90;;;;;;5111143;28;20436;-72
2022/10/12 10:20:27;;;;;;;11.60;5.00;;;17.20;99.90;;;;;;5111902;28;20482;-72
2022/10/12 10:22:56;;;;;;;10.23;5.20;;;17.40;99.90;;;;;;5111392;28;20867;-71
2022/10/12 10:25:24;;;;;;;8.93;5.20;;;17.80;99.90;;;;;;5111596;28;20433;-71
2022/10/12 10:28:08;;;;;;;7.63;4.47;;;18.20;99.90;;;;;;5110808;28;20945;-71
2022/10/12 10:30:37;;;;;;;10.90;5.40;;;18.70;99.90;;;;;;5108987;28;20479;-71
2022/10/12 10:33:14;;;;;;;20.57;5.40;;;19.00;99.90;;;;;;5109347;28;20446;-71
2022/10/12 10:35:52;;;;;;;13.83;5.57;;;19.20;99.90;;;;;;5109039;28;20470;-70
2022/10/12 10:38:20;;;;;;;17.23;5.30;;;19.00;99.90;;;;;;5110486;28;20864;-70
2022/10/12 10:40:51;;;;;;;13.03;7.30;;;19.00;99.90;;;;;;5109500;27;20489;-70
2022/10/12 10:43:22;;;;;;;13.00;6.57;;;18.90;99.90;;;;;;5109370;28;20446;-70
2022/10/12 10:45:51;;;;;;;16.10;7.93;;;19.00;99.90;;;;;;5109714;28;20446;-70
2022/10/12 10:48:20;;;;;;;22.17;7.10;;;18.80;99.90;;;;;;5109613;27;20458;-70
2022/10/12 10:50:52;;;;;;;16.70;7.47;;;18.70;99.90;;;;;;5108936;28;20441;-70
2022/10/12 10:53:23;;;;;;;14.10;8.57;;;18.70;99.90;;;;;;5110210;28;20926;-71
2022/10/12 10:55:54;;;;;;;13.30;8.47;;;18.30;99.90;;;;;;5110029;28;20454;-71
2022/10/12 10:58:27;;;;;;;20.03;8.77;;;18.00;99.90;;;;;;5110837;28;20845;-70
2022/10/12 11:00:57;;;;;;;18.57;8.40;;;17.50;99.90;;;;;;5107929;28;21352;-71
2022/10/12 11:03:31;;;;;;;27.63;8.97;;;17.50;99.90;;;;;;5109808;27;20922;-70
2022/10/12 11:06:07;;;;;;;15.40;8.37;;;17.80;99.90;;;;;;5109763;27;20872;-70
2022/10/12 11:08:36;;;;;;;15.73;8.27;;;18.00;99.90;;;;;;5108618;28;20420;-71
2022/10/12 11:11:09;;;;;;;14.33;8.37;;;18.40;99.90;;;;;;5108693;28;20428;-71
2022/10/12 11:13:39;;;;;;;15.20;8.90;;;18.50;99.90;;;;;;5108483;28;20795;-71
2022/10/12 11:16:18;;;;;;;17.23;8.73;;;18.50;99.90;;;;;;5107990;28;20816;-71
2022/10/12 11:18:48;;;;;;;21.13;9.13;;;18.50;99.90;;;;;;5109835;28;20451;-70
2022/10/12 11:21:21;;;;;;;19.53;11.00;;;18.10;99.90;;;;;;5108672;28;20448;-70
2022/10/12 11:23:51;;;;;;;19.10;9.57;;;17.70;99.90;;;;;;5109841;28;20433;-70
2022/10/12 11:26:25;;;;;;;16.87;9.10;;;17.60;99.90;;;;;;5108950;28;20953;-71
2022/10/12 11:28:54;;;;;;;16.73;9.90;;;17.70;99.90;;;;;;5109621;28;20951;-71
2022/10/12 11:31:24;;;;;;;20.03;10.03;;;17.60;99.90;;;;;;5108690;28;20973;-71
2022/10/12 11:33:53;;;;;;;20.87;11.07;;;17.50;99.90;;;;;;5108994;28;20432;-71
2022/10/12 11:36:23;;;;;;;17.00;9.80;;;17.50;99.90;;;;;;5109801;28;20507;-70
2022/10/12 11:38:56;;;;;;;26.67;10.73;;;17.50;99.90;;;;;;5108191;28;20542;-71
2022/10/12 11:41:30;;;;;;;27.40;9.97;;;17.20;99.90;;;;;;5108268;28;20464;-70
2022/10/12 11:44:01;;;;;;;21.60;9.80;;;16.90;99.90;;;;;;5109085;28;20835;-69
2022/10/12 11:46:33;;;;;;;21.70;9.87;;;16.80;99.90;;;;;;5108691;28;20447;-70
2022/10/12 11:49:02;;;;;;;16.67;9.30;;;16.70;99.90;;;;;;5109337;28;20451;-70
2022/10/12 11:51:29;;;;;;;17.50;8.67;;;16.80;99.90;;;;;;5107674;28;20523;-69
2022/10/12 11:54:04;;;;;;;15.20;8.37;;;16.90;99.90;;;;;;5109077;28;20476;-71
2022/10/12 11:56:35;;;;;;;13.83;8.23;;;16.90;99.90;;;;;;5109338;28;20424;-71
2022/10/12 11:59:09;;;;;;;21.57;9.23;;;16.80;99.90;;;;;;5108375;28;20436;-71
2022/10/12 12:01:59;;;;;;;10.70;8.00;;;16.70;99.90;;;;;;5108672;28;20473;-70
2022/10/12 12:04:30;;;;;;;20.40;9.70;;;16.80;99.90;;;;;;5108524;28;20470;-71
2022/10/12 12:07:00;;;;;;;14.70;8.80;;;17.00;99.90;;;;;;5108345;28;20474;-71
2022/10/12 12:09:38;;;;;;;18.23;11.27;;;17.30;99.90;;;;;;5109502;28;20447;-71
2022/10/12 12:12:19;;;;;;;16.57;10.23;;;17.40;99.90;;;;;;5104191;28;20819;-71
2022/10/12 12:15:03;;;;;;;14.80;10.33;;;17.30;99.90;;;;;;5106462;28;20444;-72
2022/10/12 12:17:31;;;;;;;18.23;10.43;;;17.20;99.90;;;;;;5090314;27;20484;-70
2022/10/12 12:19:59;;;;;;;15.93;10.67;;;17.30;99.90;;;;;;5108085;28;20502;-69
2022/10/12 12:22:47;;;;;;;20.60;11.17;;;17.60;99.90;;;;;;5108193;28;20447;-71
2022/10/12 12:25:20;;;;;;;17.10;10.20;;;17.90;99.90;;;;;;5107690;28;20474;-72
2022/10/12 12:27:50;;;;;;;16.70;9.23;;;18.10;99.90;;;;;;5108099;28;20441;-70
2022/10/12 12:30:30;;;;;;;24.17;12.17;;;18.00;99.90;;;;;;5107560;28;20451;-72
2022/10/12 12:32:59;;;;;;;15.03;9.90;;;18.10;99.90;;;;;;5106938;28;20455;-72
2022/10/12 12:35:30;;;;;;;17.20;9.90;;;18.10;99.90;;;;;;5107616;28;20417;-71
2022/10/12 12:38:03;;;;;;;16.00;9.40;;;18.40;99.90;;;;;;5106031;28;20429;-72
2022/10/12 12:40:32;;;;;;;17.80;9.87;;;18.60;99.90;;;;;;5107234;28;20534;-71
2022/10/12 12:43:19;;;;;;;20.10;11.33;;;18.50;99.90;;;;;;5106906;28;20417;-71
2022/10/12 12:45:54;;;;;;;21.00;10.13;;;18.70;99.90;;;;;;5104965;28;20454;-71
2022/10/12 12:48:55;;;;;;;16.50;10.20;;;18.70;99.90;;;;;;5106158;28;20461;-71
2022/10/12 12:51:24;;;;;;;22.27;10.20;;;18.70;99.90;;;;;;5107185;28;20954;-71
2022/10/12 12:53:55;;;;;;;16.20;9.17;;;19.00;99.90;;;;;;5107578;28;20469;-71
2022/10/12 12:56:32;;;;;;;17.13;9.70;;;19.00;99.90;;;;;;5107041;28;20720;-71